createdAt,value
2023-03-15T00:00:43.144Z,83.00
2023-03-15T00:03:12.081Z,81.95
2023-03-15T00:05:43.243Z,82.46
2023-03-15T00:08:12.177Z,82.67
2023-03-15T00:10:41.719Z,83.23
2023-03-15T00:13:10.353Z,85.28
2023-03-15T00:15:46.815Z,83.94
2023-03-15T00:18:15.423Z,85.58
2023-03-15T00:20:43.847Z,87.32
2023-03-15T00:23:12.323Z,85.26
2023-03-15T00:25:40.722Z,85.90
2023-03-15T00:28:09.565Z,85.20
2023-03-15T00:30:39.126Z,84.90
2023-03-15T00:33:07.044Z,85.06
2023-03-15T00:35:39.381Z,84.16
2023-03-15T00:38:07.438Z,84.44
2023-03-15T00:40:35.639Z,83.62
2023-03-15T00:43:04.232Z,84.70
2023-03-15T00:45:32.108Z,84.71
2023-03-15T00:48:01.649Z,85.23
2023-03-15T00:50:29.627Z,84.53
2023-03-15T00:52:57.563Z,84.21
2023-03-15T00:55:27.030Z,83.75
2023-03-15T00:57:54.993Z,84.08
2023-03-15T01:00:25.251Z,84.82
2023-03-15T01:02:53.673Z,83.71
2023-03-15T01:05:26.302Z,84.04
2023-03-15T01:07:54.365Z,84.09
2023-03-15T01:10:22.197Z,83.75
2023-03-15T01:12:50.098Z,82.80
2023-03-15T01:15:18.185Z,81.97
2023-03-15T01:17:46.159Z,81.78
2023-03-15T01:20:17.361Z,84.60
2023-03-15T01:22:46.632Z,81.60
2023-03-15T01:25:16.000Z,80.92
2023-03-15T01:27:45.693Z,80.98
2023-03-15T01:30:14.074Z,80.54
2023-03-15T01:32:41.924Z,79.75
2023-03-15T01:35:10.331Z,79.91
2023-03-15T01:37:38.222Z,79.87
2023-03-15T01:40:14.575Z,79.72
2023-03-15T01:43:13.128Z,79.59
2023-03-15T01:45:58.029Z,78.92
2023-03-15T01:48:30.832Z,79.02
2023-03-15T01:51:00.109Z,78.72
2023-03-15T01:53:31.686Z,79.61
2023-03-15T01:56:02.659Z,79.64
2023-03-15T01:58:41.462Z,79.01
2023-03-15T02:01:10.868Z,78.55
2023-03-15T02:03:48.505Z,79.51
2023-03-15T02:06:20.103Z,80.78
2023-03-15T02:08:57.040Z,79.85
2023-03-15T02:11:28.921Z,79.07
2023-03-15T02:13:58.840Z,79.17
2023-03-15T02:16:27.370Z,79.66
2023-03-15T02:19:00.107Z,79.87
2023-03-15T02:21:39.993Z,79.47
2023-03-15T02:24:20.814Z,79.61
2023-03-15T02:26:55.070Z,79.61
2023-03-15T02:29:26.520Z,80.11
2023-03-15T02:31:54.838Z,80.16
2023-03-15T02:34:26.178Z,79.96
2023-03-15T02:36:56.512Z,80.87
2023-03-15T02:39:25.553Z,80.50
2023-03-15T02:41:56.139Z,80.49
2023-03-15T02:44:30.431Z,80.33
2023-03-15T02:47:02.677Z,80.83
2023-03-15T02:49:33.954Z,81.18
2023-03-15T02:52:01.926Z,80.54
2023-03-15T02:54:29.753Z,80.33
2023-03-15T02:56:57.586Z,79.86
2023-03-15T02:59:26.895Z,79.74
2023-03-15T03:01:54.941Z,79.36
2023-03-15T03:04:23.004Z,79.17
2023-03-15T03:06:50.981Z,80.16
2023-03-15T03:09:22.636Z,79.23
2023-03-15T03:11:50.545Z,79.75
2023-03-15T03:14:19.506Z,80.01
2023-03-15T03:16:48.815Z,79.08
2023-03-15T03:19:19.449Z,78.77
2023-03-15T03:21:47.358Z,78.58
2023-03-15T03:24:16.504Z,79.00
2023-03-15T03:26:46.097Z,78.24
2023-03-15T03:29:16.573Z,77.93
2023-03-15T03:31:46.262Z,77.80
2023-03-15T03:34:15.739Z,78.00
2023-03-15T03:36:44.425Z,79.43
2023-03-15T03:39:15.777Z,78.09
2023-03-15T03:41:45.260Z,78.13
2023-03-15T03:44:14.218Z,79.36
2023-03-15T03:46:43.544Z,79.97
2023-03-15T03:49:14.765Z,80.64
2023-03-15T03:51:42.671Z,80.99
2023-03-15T03:54:10.517Z,80.61
2023-03-15T03:56:39.699Z,79.55
2023-03-15T03:59:07.604Z,80.52
2023-03-15T04:01:58.188Z,79.68
2023-03-15T04:04:27.565Z,79.87
2023-03-15T04:06:55.698Z,78.74
2023-03-15T04:09:28.129Z,78.67
2023-03-15T04:11:56.024Z,79.32
2023-03-15T04:14:25.772Z,79.17
2023-03-15T04:16:54.578Z,78.65
2023-03-15T04:19:24.320Z,78.73
2023-03-15T04:21:54.469Z,78.58
2023-03-15T04:24:34.037Z,79.41
2023-03-15T04:27:14.504Z,78.69
2023-03-15T04:30:05.264Z,78.38
2023-03-15T04:32:46.190Z,78.73
2023-03-15T04:35:30.615Z,79.46
2023-03-15T04:38:18.601Z,78.33
2023-03-15T04:41:02.153Z,78.41
2023-03-15T04:44:02.335Z,78.71
2023-03-15T04:46:59.840Z,78.86
2023-03-15T04:50:00.925Z,78.56
2023-03-15T04:52:49.531Z,78.17
2023-03-15T04:55:24.611Z,77.46
2023-03-15T04:58:18.832Z,77.97
2023-03-15T05:01:19.025Z,78.49
2023-03-15T05:03:57.548Z,78.15
2023-03-15T05:06:51.450Z,78.01
2023-03-15T05:09:28.292Z,77.38
2023-03-15T05:12:18.749Z,76.75
2023-03-15T05:15:08.075Z,76.94
2023-03-15T05:17:59.174Z,77.31
2023-03-15T05:20:43.607Z,77.72
2023-03-15T05:23:32.594Z,77.06
2023-03-15T05:26:19.163Z,77.70
2023-03-15T05:29:08.789Z,78.85
2023-03-15T05:31:52.328Z,78.02
2023-03-15T05:34:32.278Z,78.10
2023-03-15T05:37:32.926Z,77.64
2023-03-15T05:40:24.252Z,78.42
2023-03-15T05:43:03.879Z,77.89
2023-03-15T05:45:51.357Z,77.93
2023-03-15T05:48:38.441Z,77.46
2023-03-15T05:51:27.491Z,78.00
2023-03-15T05:54:33.695Z,78.21
2023-03-15T05:57:19.800Z,77.01
2023-03-15T06:00:26.122Z,77.95
2023-03-15T06:03:02.741Z,77.93
2023-03-15T06:05:47.397Z,76.97
2023-03-15T06:08:20.320Z,77.24
2023-03-15T06:10:51.565Z,76.38
2023-03-15T06:13:19.612Z,76.88
2023-03-15T06:15:48.456Z,77.39
2023-03-15T06:18:19.592Z,76.75
2023-03-15T06:20:50.044Z,75.94
2023-03-15T06:23:19.496Z,76.43
2023-03-15T06:25:48.510Z,76.46
2023-03-15T06:28:17.587Z,75.54
2023-03-15T06:30:51.681Z,75.41
2023-03-15T06:33:25.260Z,75.56
2023-03-15T06:35:56.622Z,75.70
2023-03-15T06:38:24.672Z,75.32
2023-03-15T06:40:52.521Z,74.31
2023-03-15T06:43:20.389Z,74.48
2023-03-15T06:45:48.961Z,74.15
2023-03-15T06:48:18.398Z,73.78
2023-03-15T06:50:48.221Z,73.87
2023-03-15T06:53:17.829Z,73.08
2023-03-15T06:55:47.039Z,73.58
2023-03-15T06:58:15.319Z,72.02
2023-03-15T07:00:44.338Z,72.37
2023-03-15T07:03:14.371Z,71.62
2023-03-15T07:05:42.286Z,70.92
2023-03-15T07:08:11.534Z,71.00
2023-03-15T07:10:39.367Z,70.25
2023-03-15T07:13:07.328Z,70.46
2023-03-15T07:15:37.586Z,71.00
2023-03-15T07:18:05.477Z,69.14
2023-03-15T07:20:34.686Z,68.74
2023-03-15T07:23:03.395Z,67.95
2023-03-15T07:25:37.594Z,67.58
2023-03-15T07:28:10.060Z,65.39
2023-03-15T07:30:37.876Z,65.52
2023-03-15T07:33:05.877Z,64.86
2023-03-15T07:35:33.902Z,64.82
2023-03-15T07:38:04.368Z,63.98
2023-03-15T07:40:33.743Z,63.24
2023-03-15T07:43:01.477Z,63.39
2023-03-15T07:45:29.601Z,62.06
2023-03-15T07:48:00.772Z,61.34
2023-03-15T07:50:28.711Z,60.47
2023-03-15T07:52:56.554Z,59.88
2023-03-15T07:55:25.313Z,59.54
2023-03-15T07:57:54.575Z,59.99
2023-03-15T08:00:23.047Z,59.21
2023-03-15T08:02:50.966Z,58.04
2023-03-15T08:05:19.088Z,57.14
2023-03-15T08:07:47.268Z,57.88
2023-03-15T08:10:18.665Z,58.10
2023-03-15T08:12:46.609Z,56.74
2023-03-15T08:15:16.342Z,56.00
2023-03-15T08:17:44.289Z,55.98
2023-03-15T08:20:17.544Z,55.39
2023-03-15T08:22:45.975Z,54.75
2023-03-15T08:25:19.073Z,54.64
2023-03-15T08:27:47.116Z,55.17
2023-03-15T08:30:17.598Z,52.48
2023-03-15T08:32:47.158Z,52.89
2023-03-15T08:35:17.477Z,54.32
2023-03-15T08:37:46.989Z,52.67
2023-03-15T08:40:15.591Z,50.06
2023-03-15T08:42:43.544Z,51.26
2023-03-15T08:45:12.317Z,49.69
2023-03-15T08:47:41.939Z,50.25
2023-03-15T08:50:14.460Z,48.67
2023-03-15T08:52:43.064Z,48.18
2023-03-15T08:55:14.359Z,50.82
2023-03-15T08:57:43.011Z,50.17
2023-03-15T09:00:18.446Z,46.74
2023-03-15T09:02:49.694Z,47.70
2023-03-15T09:05:18.175Z,47.39
2023-03-15T09:07:46.691Z,47.47
2023-03-15T09:10:16.498Z,45.39
2023-03-15T09:12:44.700Z,46.52
2023-03-15T09:15:12.950Z,46.65
2023-03-15T09:17:41.258Z,47.40
2023-03-15T09:20:15.419Z,47.03
2023-03-15T09:22:44.204Z,48.19
2023-03-15T09:25:12.049Z,48.24
2023-03-15T09:27:40.008Z,47.14
2023-03-15T09:30:08.928Z,46.93
2023-03-15T09:32:37.116Z,46.96
2023-03-15T09:35:06.117Z,47.58
2023-03-15T09:37:36.191Z,48.01
2023-03-15T09:40:04.783Z,46.42
2023-03-15T09:42:43.124Z,46.37
2023-03-15T09:45:19.342Z,46.39
2023-03-15T09:47:57.018Z,48.51
2023-03-15T09:50:30.527Z,45.88
2023-03-15T09:53:05.755Z,47.71
2023-03-15T09:55:33.669Z,46.30
2023-03-15T09:58:04.263Z,47.71
2023-03-15T10:00:38.596Z,46.92
2023-03-15T10:03:09.877Z,47.21
2023-03-15T10:05:43.010Z,47.87
2023-03-15T10:08:17.485Z,47.25
2023-03-15T10:10:51.947Z,46.46
2023-03-15T10:13:30.842Z,47.30
2023-03-15T10:16:12.347Z,47.04
2023-03-15T10:18:57.633Z,47.61
2023-03-15T10:21:36.241Z,46.90
2023-03-15T10:24:06.964Z,47.22
2023-03-15T10:26:39.648Z,46.68
2023-03-15T10:29:14.868Z,47.38
2023-03-15T10:31:46.342Z,46.38
2023-03-15T10:34:16.684Z,46.09
2023-03-15T10:36:50.311Z,46.58
2023-03-15T10:39:19.545Z,46.65
2023-03-15T10:41:49.979Z,44.74
2023-03-15T10:44:21.272Z,45.73
2023-03-15T10:47:05.019Z,45.58
2023-03-15T10:49:42.211Z,45.10
2023-03-15T10:52:28.258Z,45.71
2023-03-15T10:55:03.923Z,45.02
2023-03-15T10:57:39.080Z,44.85
2023-03-15T11:00:23.958Z,45.15
2023-03-15T11:03:01.579Z,45.53
2023-03-15T11:05:33.084Z,47.48
2023-03-15T11:08:02.335Z,48.30
2023-03-15T11:10:35.816Z,48.40
2023-03-15T11:13:21.945Z,48.42
2023-03-15T11:15:57.045Z,48.72
2023-03-15T11:18:30.950Z,48.04
2023-03-15T11:20:59.606Z,48.80
2023-03-15T11:23:30.915Z,45.78
2023-03-15T11:26:00.422Z,45.02
2023-03-15T11:28:31.662Z,44.40
2023-03-15T11:31:01.026Z,44.98
2023-03-15T11:33:38.318Z,45.55
2023-03-15T11:36:12.220Z,44.99
2023-03-15T11:38:44.168Z,46.33
2023-03-15T11:41:23.702Z,45.71
2023-03-15T11:43:59.495Z,45.18
2023-03-15T11:46:33.116Z,44.82
2023-03-15T11:49:07.372Z,45.80
2023-03-15T11:51:37.573Z,46.78
2023-03-15T11:54:12.568Z,47.29
2023-03-15T11:56:54.253Z,48.88
2023-03-15T11:59:27.594Z,47.94
2023-03-15T12:02:00.860Z,49.78
2023-03-15T12:04:45.302Z,49.73
2023-03-15T12:07:34.648Z,48.79
2023-03-15T12:10:22.127Z,49.22
2023-03-15T12:13:18.472Z,51.10
2023-03-15T12:15:48.914Z,51.35
2023-03-15T12:18:23.163Z,50.88
2023-03-15T12:20:58.543Z,51.04
2023-03-15T12:23:38.966Z,51.38
2023-03-15T12:26:10.883Z,51.65
2023-03-15T12:28:45.037Z,51.52
2023-03-15T12:31:15.273Z,51.34
2023-03-15T12:33:49.698Z,50.93
2023-03-15T12:36:30.740Z,51.01
2023-03-15T12:39:04.374Z,50.64
2023-03-15T12:41:39.063Z,57.14
2023-03-15T12:44:38.370Z,61.32
2023-03-15T12:47:07.305Z,63.35
2023-03-15T12:49:38.055Z,65.49
2023-03-15T12:52:14.459Z,67.70
2023-03-15T12:54:46.962Z,66.00
2023-03-15T12:57:22.041Z,64.54
2023-03-15T12:59:55.770Z,66.25
2023-03-15T13:02:42.120Z,68.44
2023-03-15T13:05:20.192Z,67.45
2023-03-15T13:07:58.167Z,69.51
2023-03-15T13:10:41.107Z,67.14
2023-03-15T13:13:38.798Z,69.71
2023-03-15T13:16:18.656Z,70.58
2023-03-15T13:18:55.828Z,71.38
2023-03-15T13:21:29.787Z,71.68
2023-03-15T13:23:59.951Z,69.43
2023-03-15T13:26:40.784Z,67.85
2023-03-15T13:29:17.553Z,67.37
2023-03-15T13:31:47.827Z,64.89
2023-03-15T13:34:20.856Z,65.34
2023-03-15T13:36:50.833Z,65.99
2023-03-15T13:39:23.453Z,64.77
2023-03-15T13:41:57.813Z,64.79
2023-03-15T13:44:27.238Z,63.90
2023-03-15T13:46:57.925Z,62.67
2023-03-15T13:49:30.934Z,63.51
2023-03-15T13:52:00.088Z,61.85
2023-03-15T13:54:30.752Z,61.67
2023-03-15T13:57:03.647Z,63.31
2023-03-15T13:59:36.328Z,63.79
2023-03-15T14:02:07.213Z,66.48
2023-03-15T14:04:38.723Z,66.77
2023-03-15T14:07:22.438Z,67.17
2023-03-15T14:09:50.283Z,67.57
2023-03-15T14:12:23.649Z,68.25
2023-03-15T14:14:53.661Z,67.31
2023-03-15T14:17:27.602Z,64.80
2023-03-15T14:19:57.814Z,63.84
2023-03-15T14:22:26.104Z,64.53
2023-03-15T14:24:54.366Z,64.17
2023-03-15T14:27:24.306Z,64.73
2023-03-15T14:29:55.959Z,66.55
2023-03-15T14:32:31.215Z,64.80
2023-03-15T14:35:05.139Z,64.77
2023-03-15T14:37:38.157Z,63.94
2023-03-15T14:40:21.026Z,63.86
2023-03-15T14:42:50.015Z,63.87
2023-03-15T14:45:19.084Z,64.70
2023-03-15T14:47:57.080Z,72.39
2023-03-15T14:50:27.825Z,76.74
2023-03-15T14:52:57.503Z,76.65
2023-03-15T14:55:30.600Z,76.36
2023-03-15T14:57:58.777Z,78.01
2023-03-15T15:00:27.265Z,78.37
2023-03-15T15:02:58.322Z,76.95
2023-03-15T15:05:32.674Z,75.28
2023-03-15T15:08:13.170Z,74.02
2023-03-15T15:10:44.777Z,74.72
2023-03-15T15:13:18.918Z,77.03
2023-03-15T15:15:55.128Z,77.64
2023-03-15T15:18:26.975Z,78.92
2023-03-15T15:20:59.416Z,79.87
2023-03-15T15:23:29.881Z,77.22
2023-03-15T15:26:19.911Z,78.40
2023-03-15T15:28:57.538Z,79.29
2023-03-15T15:31:27.127Z,81.24
2023-03-15T15:33:57.586Z,79.80
2023-03-15T15:36:28.090Z,79.28
2023-03-15T15:39:01.231Z,81.12
2023-03-15T15:41:31.535Z,81.89
2023-03-15T15:43:59.881Z,82.57
2023-03-15T15:46:28.493Z,82.28
2023-03-15T15:48:58.880Z,82.31
2023-03-15T15:51:29.574Z,81.55
2023-03-15T15:53:59.617Z,82.82
2023-03-15T15:56:33.758Z,83.23
2023-03-15T15:59:03.269Z,83.07
2023-03-15T16:01:31.535Z,83.15
2023-03-15T16:04:02.090Z,81.37
2023-03-15T16:06:30.531Z,81.20
2023-03-15T16:08:58.677Z,82.25
2023-03-15T16:11:26.947Z,82.68
2023-03-15T16:13:55.020Z,82.87
2023-03-15T16:16:23.030Z,82.57
2023-03-15T16:18:51.146Z,80.84
2023-03-15T16:21:27.526Z,80.23
2023-03-15T16:23:59.304Z,81.38
2023-03-15T16:26:27.177Z,82.23
2023-03-15T16:28:55.540Z,80.08
2023-03-15T16:31:23.644Z,81.01
2023-03-15T16:33:51.939Z,79.92
2023-03-15T16:36:23.358Z,78.83
2023-03-15T16:38:51.343Z,78.01
2023-03-15T16:41:19.281Z,79.53
2023-03-15T16:43:50.644Z,79.16
2023-03-15T16:46:18.821Z,79.81
2023-03-15T16:48:46.886Z,80.68
2023-03-15T16:51:16.987Z,79.89
2023-03-15T16:53:46.387Z,79.79
2023-03-15T16:56:15.865Z,79.59
2023-03-15T16:58:45.426Z,80.36
2023-03-15T17:01:18.449Z,80.01
2023-03-15T17:03:47.796Z,79.01
2023-03-15T17:06:21.005Z,78.60
2023-03-15T17:08:53.108Z,78.29
2023-03-15T17:11:21.577Z,78.82
2023-03-15T17:13:50.341Z,79.63
2023-03-15T17:16:22.240Z,79.12
2023-03-15T17:18:51.271Z,77.93
2023-03-15T17:21:24.040Z,77.88
2023-03-15T17:23:54.739Z,77.62
2023-03-15T17:26:43.692Z,77.36
2023-03-15T17:29:15.771Z,77.55
2023-03-15T17:31:45.070Z,77.67
2023-03-15T17:34:15.459Z,77.84
2023-03-15T17:36:51.559Z,76.75
2023-03-15T17:39:23.640Z,79.06
2023-03-15T17:41:52.385Z,80.79
2023-03-15T17:44:21.328Z,80.66
2023-03-15T17:46:49.422Z,80.71
2023-03-15T17:49:18.250Z,80.54
2023-03-15T17:51:48.752Z,80.93
2023-03-15T17:54:24.881Z,81.11
2023-03-15T17:56:53.651Z,81.58
2023-03-15T17:59:21.680Z,84.05
2023-03-15T18:01:49.669Z,83.58
2023-03-15T18:04:19.672Z,82.63
2023-03-15T18:06:47.957Z,81.95
2023-03-15T18:09:18.376Z,80.82
2023-03-15T18:11:50.537Z,80.16
2023-03-15T18:14:29.936Z,80.12
2023-03-15T18:16:59.570Z,79.34
2023-03-15T18:19:27.784Z,80.34
2023-03-15T18:21:55.741Z,79.71
2023-03-15T18:24:26.596Z,79.98
2023-03-15T18:26:56.009Z,79.36
2023-03-15T18:29:24.139Z,79.44
2023-03-15T18:31:51.990Z,80.09
2023-03-15T18:34:22.062Z,80.56
2023-03-15T18:36:50.074Z,80.41
2023-03-15T18:39:18.031Z,80.31
2023-03-15T18:41:46.445Z,80.67
2023-03-15T18:44:15.883Z,79.96
2023-03-15T18:46:44.211Z,79.64
2023-03-15T18:49:12.164Z,80.17
2023-03-15T18:51:41.474Z,80.23
2023-03-15T18:54:09.556Z,79.50
2023-03-15T18:56:37.487Z,80.14
2023-03-15T18:59:05.646Z,81.64
2023-03-15T19:01:39.845Z,81.33
2023-03-15T19:04:11.332Z,81.02
2023-03-15T19:06:39.669Z,81.86
2023-03-15T19:09:07.657Z,86.36
2023-03-15T19:11:38.349Z,88.32
2023-03-15T19:14:06.351Z,88.56
2023-03-15T19:16:36.329Z,88.58
2023-03-15T19:19:04.640Z,86.68
2023-03-15T19:21:32.636Z,87.44
2023-03-15T19:24:06.627Z,87.11
2023-03-15T19:26:34.916Z,87.30
2023-03-15T19:29:05.761Z,86.77
2023-03-15T19:32:24.427Z,85.23
2023-03-15T19:35:34.412Z,85.27
2023-03-15T19:38:09.439Z,85.05
2023-03-15T19:44:06.604Z,90.12
2023-03-15T19:46:37.398Z,89.24
2023-03-15T19:49:05.773Z,87.86
2023-03-15T19:51:36.734Z,86.92
2023-03-15T19:54:05.928Z,85.74
2023-03-15T19:56:34.359Z,87.17
2023-03-15T19:59:05.424Z,86.80
2023-03-15T20:01:33.606Z,85.82
2023-03-15T20:04:01.952Z,84.47
2023-03-15T20:06:32.098Z,83.00
2023-03-15T20:09:01.945Z,82.62
2023-03-15T20:11:30.196Z,82.37
2023-03-15T20:13:58.347Z,82.94
2023-03-15T20:16:27.458Z,83.40
2023-03-15T20:18:56.073Z,83.49
2023-03-15T20:21:24.465Z,86.07
2023-03-15T20:23:52.346Z,87.05
2023-03-15T20:26:23.755Z,87.52
2023-03-15T20:28:51.788Z,85.59
2023-03-15T20:31:21.685Z,86.09
2023-03-15T20:33:51.203Z,85.74
2023-03-15T20:36:19.797Z,84.89
2023-03-15T20:38:47.793Z,84.45
2023-03-15T20:41:15.743Z,83.71
2023-03-15T20:43:45.130Z,84.08
2023-03-15T20:46:13.758Z,85.13
2023-03-15T20:48:41.795Z,85.28
2023-03-15T20:51:09.720Z,84.97
2023-03-15T20:53:38.379Z,84.23
2023-03-15T20:56:07.442Z,83.44
2023-03-15T20:58:35.694Z,83.90
2023-03-15T21:01:07.396Z,83.72
2023-03-15T21:03:38.382Z,82.59
2023-03-15T21:06:07.384Z,85.03
2023-03-15T21:08:35.686Z,86.22
2023-03-15T21:11:04.575Z,86.10
2023-03-15T21:13:32.971Z,86.43
2023-03-15T21:16:04.052Z,86.03
2023-03-15T21:18:36.078Z,86.11
2023-03-15T21:21:06.187Z,85.55
2023-03-15T21:23:35.216Z,84.56
2023-03-15T21:26:04.926Z,83.61
2023-03-15T21:28:33.135Z,82.57
2023-03-15T21:31:01.211Z,82.87
2023-03-15T21:33:31.053Z,85.57
2023-03-15T21:36:01.375Z,85.52
2023-03-15T21:38:31.435Z,85.04
2023-03-15T21:41:00.206Z,84.05
2023-03-15T21:43:29.849Z,83.19
2023-03-15T21:46:00.177Z,82.15
2023-03-15T21:48:28.358Z,82.75
2023-03-15T21:50:56.348Z,83.13
2023-03-15T21:53:28.246Z,83.38
2023-03-15T21:55:56.981Z,83.92
2023-03-15T21:58:25.542Z,85.09
2023-03-15T22:00:59.409Z,85.54
2023-03-15T22:03:27.940Z,84.35
2023-03-15T22:05:56.010Z,83.66
2023-03-15T22:08:27.985Z,83.23
2023-03-15T22:10:56.608Z,84.04
2023-03-15T22:13:24.918Z,83.60
2023-03-15T22:15:53.538Z,83.59
2023-03-15T22:18:21.496Z,82.95
2023-03-15T22:20:50.172Z,82.25
2023-03-15T22:23:18.806Z,81.56
2023-03-15T22:25:48.089Z,84.77
2023-03-15T22:28:16.364Z,86.93
2023-03-15T22:30:47.428Z,89.45
2023-03-15T22:33:19.175Z,89.16
2023-03-15T22:35:47.354Z,90.95
2023-03-15T22:38:15.728Z,90.40
2023-03-15T22:40:43.642Z,89.81
2023-03-15T22:43:12.905Z,89.82
2023-03-15T22:45:41.251Z,89.86
2023-03-15T22:48:09.094Z,89.81
2023-03-15T22:50:37.205Z,89.48
2023-03-15T22:53:04.988Z,88.67
2023-03-15T22:55:32.846Z,88.36
2023-03-15T22:58:00.715Z,87.96
2023-03-15T23:00:30.221Z,86.60
2023-03-15T23:02:58.166Z,85.75
2023-03-15T23:05:26.048Z,86.96
2023-03-15T23:07:53.856Z,87.21
2023-03-15T23:10:21.915Z,86.83
2023-03-15T23:12:49.781Z,86.62
2023-03-15T23:15:18.385Z,87.49
2023-03-15T23:17:47.711Z,87.70
2023-03-15T23:20:16.773Z,88.70
2023-03-15T23:22:45.100Z,88.07
2023-03-15T23:25:14.136Z,88.81
2023-03-15T23:27:42.957Z,89.63
2023-03-15T23:30:12.052Z,90.64
2023-03-15T23:32:40.397Z,91.47
2023-03-15T23:35:12.274Z,92.48
2023-03-15T23:37:40.433Z,93.45
2023-03-15T23:40:14.010Z,93.07
2023-03-15T23:42:42.596Z,92.11
2023-03-15T23:45:12.144Z,90.64
2023-03-15T23:47:40.962Z,90.98
2023-03-15T23:50:12.603Z,90.71
2023-03-15T23:52:41.307Z,90.63
2023-03-15T23:55:09.936Z,89.95
2023-03-15T23:57:38.069Z,90.32
